createdAt,value
2022-11-05T00:01:08.040Z,100306.67
2022-11-05T00:06:31.397Z,100315.02
2022-11-05T00:11:55.718Z,100318.28
2022-11-05T00:17:01.176Z,100323.26
2022-11-05T00:22:24.260Z,100323.26
2022-11-05T00:27:29.726Z,100328.89
2022-11-05T00:32:35.623Z,100341.03
2022-11-05T00:37:45.596Z,100340.86
2022-11-05T00:43:06.516Z,100344.39
2022-11-05T00:48:29.762Z,100351.29
2022-11-05T00:53:35.293Z,100369.77
2022-11-05T00:58:40.832Z,100364.95
2022-11-05T01:03:51.433Z,100368.91
2022-11-05T01:08:53.567Z,100366.05
2022-11-05T01:13:58.960Z,100367.31
2022-11-05T01:19:06.442Z,100368.55
2022-11-05T01:24:12.470Z,100373.42
2022-11-05T01:29:18.094Z,100378.96
2022-11-05T01:34:23.819Z,100384.70
2022-11-05T01:39:29.357Z,100386.71
2022-11-05T01:44:57.532Z,100387.19
2022-11-05T01:50:05.967Z,100391.20
2022-11-05T01:55:12.501Z,100392.92
2022-11-05T02:00:18.073Z,100395.03
2022-11-05T02:05:24.339Z,100404.78
2022-11-05T02:10:30.267Z,100406.70
2022-11-05T02:15:41.489Z,100411.48
2022-11-05T02:20:59.705Z,100415.11
2022-11-05T02:26:33.191Z,100417.20
2022-11-05T02:31:41.701Z,100416.73
2022-11-05T02:36:53.144Z,100416.92
2022-11-05T02:42:13.688Z,100419.70
2022-11-05T02:47:34.270Z,100427.73
2022-11-05T02:52:45.267Z,100437.19
2022-11-05T02:57:50.861Z,100438.16
2022-11-05T03:02:56.694Z,100440.95
2022-11-05T03:08:05.193Z,100448.41
2022-11-05T03:13:13.887Z,100454.15
2022-11-05T03:18:43.316Z,100459.88
2022-11-05T03:23:57.429Z,100470.20
2022-11-05T03:29:11.842Z,100476.32
2022-11-05T03:34:20.330Z,100472.78
2022-11-05T03:39:34.733Z,100486.36
2022-11-05T03:44:43.098Z,100494.00
2022-11-05T03:49:51.602Z,100507.69
2022-11-05T03:55:17.837Z,100520.47
2022-11-05T04:00:24.257Z,100524.86
2022-11-05T04:05:29.968Z,100536.72
2022-11-05T04:10:52.939Z,100529.16
2022-11-05T04:16:16.474Z,100535.67
2022-11-05T04:21:40.050Z,100540.92
2022-11-05T04:26:46.255Z,100545.42
2022-11-05T04:31:51.609Z,100543.60
2022-11-05T04:36:57.061Z,100549.72
2022-11-05T04:42:02.512Z,100555.82
2022-11-05T04:47:08.033Z,100556.86
2022-11-05T04:52:13.462Z,100564.03
2022-11-05T04:57:18.860Z,100573.97
2022-11-05T05:02:24.460Z,100573.38
2022-11-05T05:07:29.990Z,100581.97
2022-11-05T05:12:36.564Z,100577.28
2022-11-05T05:17:42.419Z,100578.20
2022-11-05T05:22:53.221Z,100586.31
2022-11-05T05:27:59.139Z,100586.52
2022-11-05T05:33:05.555Z,100588.00
2022-11-05T05:38:11.081Z,100593.91
2022-11-05T05:43:16.815Z,100609.47
2022-11-05T05:48:22.199Z,100612.70
2022-11-05T05:53:27.573Z,100618.73
2022-11-05T05:58:39.023Z,100631.78
2022-11-05T06:03:44.529Z,100631.32
2022-11-05T06:08:50.375Z,100632.56
2022-11-05T06:13:56.191Z,100647.13
2022-11-05T06:19:01.727Z,100653.38
2022-11-05T06:24:07.936Z,100668.38
2022-11-05T06:29:13.568Z,100678.73
2022-11-05T06:34:19.107Z,100678.73
2022-11-05T06:39:24.566Z,100692.56
2022-11-05T06:44:29.947Z,100697.60
2022-11-05T06:49:35.395Z,100700.21
2022-11-05T06:54:42.442Z,100705.72
2022-11-05T06:59:47.987Z,100720.13
2022-11-05T07:04:53.376Z,100720.61
2022-11-05T07:09:59.233Z,100735.89
2022-11-05T07:15:05.993Z,100747.83
2022-11-05T07:20:13.740Z,100760.28
2022-11-05T07:25:19.540Z,100763.81
2022-11-05T07:30:25.171Z,100756.19
2022-11-05T07:35:31.166Z,100770.96
2022-11-05T07:40:36.652Z,100777.16
2022-11-05T07:45:42.315Z,100779.56
2022-11-05T07:50:47.847Z,100777.28
2022-11-05T07:55:53.486Z,100780.92
2022-11-05T08:00:59.511Z,100773.19
2022-11-05T08:06:05.491Z,100774.20
2022-11-05T08:11:12.897Z,100779.95
2022-11-05T08:16:18.355Z,100795.42
2022-11-05T08:21:23.884Z,100801.23
2022-11-05T08:26:29.399Z,100802.58
2022-11-05T08:31:36.566Z,100809.42
2022-11-05T08:36:43.679Z,100812.36
2022-11-05T08:41:51.722Z,100821.59
2022-11-05T08:46:57.691Z,100823.01
2022-11-05T08:52:03.299Z,100812.80
2022-11-05T08:57:09.109Z,100795.59
2022-11-05T09:02:14.718Z,100827.36
2022-11-05T09:07:22.292Z,100838.34
2022-11-05T09:12:27.885Z,100844.91
2022-11-05T09:17:34.601Z,100850.73
2022-11-05T09:22:43.312Z,100852.84
2022-11-05T09:27:47.546Z,100862.25
2022-11-05T09:32:53.026Z,100865.19
2022-11-05T09:38:01.098Z,100870.59
2022-11-05T09:43:07.575Z,100859.20
2022-11-05T09:48:17.227Z,100874.37
2022-11-05T09:53:24.506Z,100877.73
2022-11-05T09:58:44.959Z,100883.31
2022-11-05T10:03:53.421Z,100893.56
2022-11-05T10:09:04.875Z,100890.66
2022-11-05T10:14:19.354Z,100890.09
2022-11-05T10:19:28.013Z,100897.73
2022-11-05T10:24:33.550Z,100908.43
2022-11-05T10:29:39.247Z,100913.52
2022-11-05T10:34:45.389Z,100918.73
2022-11-05T10:39:51.181Z,100920.02
2022-11-05T10:45:34.437Z,100921.34
2022-11-05T10:50:40.078Z,100933.05
2022-11-05T10:55:49.026Z,100941.92
2022-11-05T11:00:57.643Z,100949.23
2022-11-05T11:06:07.781Z,100951.03
2022-11-05T11:11:16.452Z,100954.50
2022-11-05T11:16:31.227Z,100962.27
2022-11-05T11:21:38.171Z,100961.12
2022-11-05T11:26:43.981Z,100964.67
2022-11-05T11:31:52.651Z,100976.47
2022-11-05T11:37:01.139Z,100979.13
2022-11-05T11:42:24.425Z,100972.17
2022-11-05T11:47:30.917Z,100982.40
2022-11-05T11:52:38.129Z,100967.91
2022-11-05T11:57:52.472Z,100970.48
2022-11-05T12:03:18.011Z,100975.86
2022-11-05T12:08:32.803Z,100974.39
2022-11-05T12:14:04.207Z,100975.98
2022-11-05T12:19:29.151Z,100976.48
2022-11-05T12:24:54.337Z,100987.61
2022-11-05T12:30:20.779Z,100986.09
2022-11-05T12:35:48.888Z,100991.06
2022-11-05T12:41:07.854Z,100984.14
2022-11-05T12:46:31.327Z,100990.97
2022-11-05T12:52:10.020Z,100991.34
2022-11-05T12:57:18.927Z,101001.16
2022-11-05T13:02:33.275Z,101012.66
2022-11-05T13:07:41.962Z,101014.59
2022-11-05T13:12:50.391Z,101010.70
2022-11-05T13:18:02.328Z,100999.70
2022-11-05T13:23:16.664Z,101007.77
2022-11-05T13:28:28.138Z,101012.23
2022-11-05T13:33:40.789Z,101026.77
2022-11-05T13:39:02.740Z,101035.69
2022-11-05T13:44:28.043Z,101039.33
2022-11-05T13:49:39.184Z,101049.12
2022-11-05T13:54:50.163Z,101050.55
2022-11-05T14:00:13.741Z,101054.39
2022-11-05T14:05:34.170Z,101055.06
2022-11-05T14:10:45.428Z,101057.42
2022-11-05T14:16:12.225Z,101061.84
2022-11-05T14:21:32.695Z,101069.91
2022-11-05T14:26:38.496Z,101071.28
2022-11-05T14:32:11.541Z,101070.22
2022-11-05T14:37:15.182Z,101078.15
2022-11-05T14:42:26.943Z,101083.34
2022-11-05T14:47:38.782Z,101081.83
2022-11-05T14:52:49.764Z,101085.20
2022-11-05T14:57:58.333Z,101091.52
2022-11-05T15:03:06.761Z,101089.97
2022-11-05T15:08:34.933Z,101094.47
2022-11-05T15:13:43.435Z,101095.88
2022-11-05T15:18:49.262Z,101097.08
2022-11-05T15:23:57.503Z,101095.05
2022-11-05T15:29:03.702Z,101105.48
2022-11-05T15:34:27.069Z,101103.51
2022-11-05T15:39:41.802Z,101104.28
2022-11-05T15:44:49.900Z,101104.60
2022-11-05T15:49:58.412Z,101109.76
2022-11-05T15:55:25.102Z,101118.48
2022-11-05T16:00:33.243Z,101121.19
2022-11-05T16:05:41.640Z,101120.80
2022-11-05T16:10:55.695Z,101123.03
2022-11-05T16:16:04.407Z,101120.09
2022-11-05T16:21:18.915Z,101125.27
2022-11-05T16:27:01.769Z,101129.02
2022-11-05T16:31:51.660Z,101123.39
2022-11-05T16:36:58.986Z,101123.62
2022-11-05T16:42:16.393Z,101133.27
2022-11-05T16:47:23.298Z,101132.88
2022-11-05T16:52:28.912Z,101131.27
2022-11-05T16:57:34.917Z,101143.95
2022-11-05T17:02:40.927Z,101142.24
2022-11-05T17:07:46.687Z,101151.37
2022-11-05T17:12:52.490Z,101153.57
2022-11-05T17:17:58.958Z,101158.76
2022-11-05T17:23:04.899Z,101171.45
2022-11-05T17:28:11.960Z,101166.56
2022-11-05T17:33:17.793Z,101175.75
2022-11-05T17:38:25.880Z,101167.66
2022-11-05T17:43:31.247Z,101180.56
2022-11-05T17:48:38.257Z,101182.91
2022-11-05T17:53:44.640Z,101187.79
2022-11-05T17:58:50.156Z,101198.74
2022-11-05T18:03:55.675Z,101202.36
2022-11-05T18:09:01.140Z,101208.40
2022-11-05T18:14:07.318Z,101206.66
2022-11-05T18:19:13.041Z,101210.57
2022-11-05T18:24:18.506Z,101218.77
2022-11-05T18:29:24.043Z,101223.47
2022-11-05T18:34:29.565Z,101225.49
2022-11-05T18:39:35.028Z,101222.42
2022-11-05T18:44:40.557Z,101223.11
2022-11-05T18:49:46.017Z,101232.61
2022-11-05T18:54:51.475Z,101232.86
2022-11-05T18:59:57.051Z,101237.05
2022-11-05T19:10:10.587Z,101225.59
2022-11-05T19:15:17.497Z,101224.39
2022-11-05T19:20:23.122Z,101230.45
2022-11-05T19:25:29.716Z,101227.80
2022-11-05T19:30:35.448Z,101226.53
2022-11-05T19:35:42.356Z,101231.54
2022-11-05T19:40:47.878Z,101244.17
2022-11-05T19:45:53.454Z,101240.30
2022-11-05T19:50:59.041Z,101244.04
2022-11-05T19:56:07.325Z,101245.38
2022-11-05T20:01:15.112Z,101243.64
2022-11-05T20:06:23.420Z,101245.38
2022-11-05T20:11:29.587Z,101239.30
2022-11-05T20:16:37.751Z,101249.59
2022-11-05T20:21:44.839Z,101242.64
2022-11-05T20:26:50.308Z,101240.08
2022-11-05T20:31:57.478Z,101238.94
2022-11-05T20:37:03.455Z,101250.29
2022-11-05T20:42:08.979Z,101254.96
2022-11-05T20:47:14.430Z,101261.00
2022-11-05T20:52:20.041Z,101261.66
2022-11-05T20:57:25.631Z,101266.94
2022-11-05T21:02:31.227Z,101271.27
2022-11-05T21:07:36.968Z,101270.13
2022-11-05T21:12:45.268Z,101265.75
2022-11-05T21:17:51.528Z,101270.22
2022-11-05T21:22:57.125Z,101280.03
2022-11-05T21:28:02.703Z,101285.09
2022-11-05T21:33:09.838Z,101286.95
2022-11-05T21:38:17.723Z,101284.23
2022-11-05T21:43:23.171Z,101270.67
2022-11-05T21:48:28.828Z,101270.27
2022-11-05T21:53:52.056Z,101273.53
2022-11-05T21:59:15.494Z,101275.95
2022-11-05T22:04:20.956Z,101283.63
2022-11-05T22:09:27.125Z,101293.95
2022-11-05T22:14:33.243Z,101291.28
2022-11-05T22:19:38.766Z,101290.41
2022-11-05T22:24:44.549Z,101281.20
2022-11-05T22:29:50.837Z,101288.67
2022-11-05T22:34:56.239Z,101290.59
2022-11-05T22:40:01.719Z,101289.73
2022-11-05T22:45:08.078Z,101289.73
2022-11-05T22:50:13.796Z,101287.06
2022-11-05T22:55:19.489Z,101288.45
2022-11-05T23:00:27.913Z,101290.48
2022-11-05T23:05:33.371Z,101289.20
2022-11-05T23:10:58.553Z,101291.99
2022-11-05T23:16:21.960Z,101291.59
2022-11-05T23:21:45.538Z,101292.98
2022-11-05T23:26:51.576Z,101298.50
2022-11-05T23:32:15.456Z,101295.31
2022-11-05T23:37:40.422Z,101297.70
2022-11-05T23:43:04.880Z,101289.35
2022-11-05T23:48:25.433Z,101290.04
2022-11-05T23:53:33.932Z,101289.52
2022-11-05T23:58:41.154Z,101295.31
